Flight Track Log - Related Links

Times and Time Zones

All times are in EDT time to prevent confusion due to time zone crossing. See the N352DS flight status page for this flight to view local times or setup timezone preferences in your user account.


Time Position Orientation Groundspeed Altitude Reporting Facility
EDT Latitude Longitude Course Direction KTS MPH feet Rate Location/Type
Sun 11:10:29 AM 40.5833 -75.5500 125° Southeast 83 96 3,300  Level Philadelphia TRACON
Sun 11:11:17 AM 40.5667 -75.5333 143° Southeast 79 91 3,800 500 Climbing Philadelphia TRACON
Sun 11:12:17 AM 40.5667 -75.5167 90° East 80 92 4,200 429 Climbing Philadelphia TRACON
Sun 11:13:23 AM 40.5500 -75.4833 123° Southeast 84 97 4,700 429 Climbing Philadelphia TRACON
Sun 11:14:00 AM 40.4816 -75.3205 125° Southeast  Level Estimated
Sun 11:14:23 AM 40.5333 -75.4667 143° Southeast 86 99 5,100  Level Philadelphia TRACON
Sun 11:15:00 AM 40.4668 -75.2926 125° Southeast  Level Estimated
Sun 11:15:23 AM 40.5167 -75.4333 123° Southeast 104 120 5,100  Level Philadelphia TRACON
Sun 11:16:24 AM 40.5000 -75.4000 123° Southeast 112 129 5,100  Level Philadelphia TRACON
Sun 11:17:24 AM 40.4833 -75.3667 123° Southeast 112 129 5,100  Level Philadelphia TRACON
Sun 11:18:30 AM 40.4667 -75.3167 114° Southeast 115 132 5,100  Level Philadelphia TRACON
Sun 11:19:24 AM 40.4500 -75.3000 143° Southeast 113 130 5,100  Level Philadelphia TRACON
Sun 11:20:18 AM 40.4333 -75.2667 123° Southeast 115 132 5,100  Level Philadelphia TRACON
Sun 11:21:24 AM 40.4167 -75.2167 114° Southeast 115 132 5,100  Level Philadelphia TRACON
Sun 11:22:24 AM 40.4000 -75.1833 123° Southeast 117 135 5,100  Level Philadelphia TRACON
Sun 11:23:24 AM 40.3833 -75.1500 123° Southeast 117 135 5,100  Level Philadelphia TRACON
Sun 11:24:18 AM 40.3667 -75.1167 123° Southeast 116 133 5,100  Level Philadelphia TRACON
Sun 11:25:18 AM 40.3500 -75.0833 123° Southeast 115 132 5,100  Level Philadelphia TRACON
Sun 11:26:18 AM 40.3333 -75.0500 123° Southeast 113 130 5,100  Level Philadelphia TRACON
Sun 11:27:19 AM 40.3167 -75.0167 123° Southeast 112 129 5,100  Level Philadelphia TRACON
Sun 11:28:19 AM 40.3000 -74.9833 123° Southeast 113 130 5,100  Level Philadelphia TRACON
Sun 11:30:00 AM 40.2662 -74.9270 128° Southeast  Level FlightAware Approximate
Sun 11:37:00 AM 40.2111 -74.6385 95° East  Level FlightAware Approximate
Sun 11:38:00 AM 40.2081 -74.5962 95° East  Level FlightAware Approximate
Sun 11:39:00 AM 40.2051 -74.5538 95° East  Level FlightAware Approximate
Sun 11:40:00 AM 40.2020 -74.5115 95° East  Level FlightAware Approximate
Sun 11:41:00 AM 40.1898 -74.4782 159° South  Level FlightAware Approximate
Sun 11:42:00 AM 40.1598 -74.4621 153° Southeast  Level FlightAware Approximate
Sun 11:43:00 AM 40.1308 -74.4428 153° Southeast  Level FlightAware Approximate
Sun 11:44:00 AM 40.1019 -74.4235 153° Southeast  Level FlightAware Approximate
Sun 11:45:00 AM 40.0730 -74.4042 153° Southeast  Level FlightAware Approximate
Sun 11:46:00 AM 40.0465 -74.3798 143° Southeast  Level FlightAware Approximate
Sun 11:47:00 AM 40.0207 -74.3540 143° Southeast  Level FlightAware Approximate
Sun 11:48:00 AM 39.9910 -74.3372 159° South  Level FlightAware Approximate
Sun 11:49:00 AM 39.9623 -74.3176 150° Southeast  Level FlightAware Approximate
Sun 11:50:00 AM 39.9342 -74.2964 150° Southeast  Level FlightAware Approximate
Sun 11:51:00 AM 39.9275 -74.2924 150° Southeast  Level Estimated
Sun 11:52:00 AM 39.9275 -74.2924 150° Southeast  Level Estimated
Sun 11:53:00 AM 39.9275 -74.2924 150° Southeast  Level Estimated
Sun 11:54:00 AM 39.9275 -74.2924 150° Southeast  Level Estimated
Sun 11:55:00 AM 39.9275 -74.2924 150° Southeast  Level Estimated
Sun 11:56:00 AM 39.9275 -74.2924 150° Southeast  Level Estimated
Sun 11:57:00 AM 39.9275 -74.2924 150° Southeast  Level Estimated
Sun 11:58:00 AM 39.9275 -74.2924 150° Southeast  Level Estimated
Sun 11:59:00 AM 39.9275 -74.2924 150° Southeast  Level Estimated
Sun 12:00:00 PM 39.9275 -74.2924 150° Southeast  Level Estimated
Sun 12:01:00 PM 39.9275 -74.2924 150° Southeast  Level Estimated
Sun 12:02:00 PM 39.9275 -74.2924 150° Southeast  Level Estimated
Sun 12:03:00 PM 39.9275 -74.2924 150° Southeast  Level Estimated
Sun 12:04:00 PM 39.9275 -74.2924 150° Southeast  Level Estimated
Sun 12:05:00 PM 39.9275 -74.2924 150° Southeast  Level Estimated
Sun 12:06:00 PM 39.9275 -74.2924 150° Southeast  Level Estimated
Sun 12:07:00 PM 39.9275 -74.2924 150° Southeast  Level Estimated

Login

Don't have an account? Register now (free) for customized features, flight alerts, and more!